sensor_id;sensor_type;location;lat;lon;timestamp;P1;durP1;ratioP1;P2;durP2;ratioP2
51560;SDS011;37654;51.262;17.058;2022-11-15T00:01:59;141.95;;;68.50;;
51560;SDS011;37654;51.262;17.058;2022-11-15T00:04:25;136.80;;;66.20;;
51560;SDS011;37654;51.262;17.058;2022-11-15T00:06:52;144.02;;;68.72;;
51560;SDS011;37654;51.262;17.058;2022-11-15T00:09:17;130.95;;;63.97;;
51560;SDS011;37654;51.262;17.058;2022-11-15T00:11:42;134.75;;;64.13;;
51560;SDS011;37654;51.262;17.058;2022-11-15T00:14:08;132.23;;;65.25;;
51560;SDS011;37654;51.262;17.058;2022-11-15T00:16:33;134.38;;;62.88;;
51560;SDS011;37654;51.262;17.058;2022-11-15T00:18:59;121.07;;;62.70;;
51560;SDS011;37654;51.262;17.058;2022-11-15T00:21:24;126.43;;;61.65;;
51560;SDS011;37654;51.262;17.058;2022-11-15T00:23:49;127.50;;;62.25;;
51560;SDS011;37654;51.262;17.058;2022-11-15T00:26:15;130.02;;;62.45;;
51560;SDS011;37654;51.262;17.058;2022-11-15T00:28:40;131.98;;;66.05;;
51560;SDS011;37654;51.262;17.058;2022-11-15T00:31:08;129.48;;;63.72;;
51560;SDS011;37654;51.262;17.058;2022-11-15T00:33:36;124.20;;;60.30;;
51560;SDS011;37654;51.262;17.058;2022-11-15T00:36:08;124.03;;;61.35;;
51560;SDS011;37654;51.262;17.058;2022-11-15T00:38:35;123.85;;;61.75;;
51560;SDS011;37654;51.262;17.058;2022-11-15T00:41:02;136.88;;;63.45;;
51560;SDS011;37654;51.262;17.058;2022-11-15T00:43:29;123.43;;;61.65;;
51560;SDS011;37654;51.262;17.058;2022-11-15T00:45:55;141.38;;;65.38;;
51560;SDS011;37654;51.262;17.058;2022-11-15T00:48:21;130.50;;;63.85;;
51560;SDS011;37654;51.262;17.058;2022-11-15T00:50:46;130.70;;;64.38;;
51560;SDS011;37654;51.262;17.058;2022-11-15T00:53:13;122.88;;;61.38;;
51560;SDS011;37654;51.262;17.058;2022-11-15T00:55:38;135.98;;;64.78;;
51560;SDS011;37654;51.262;17.058;2022-11-15T00:58:03;130.25;;;64.80;;
51560;SDS011;37654;51.262;17.058;2022-11-15T01:00:29;122.70;;;61.92;;
51560;SDS011;37654;51.262;17.058;2022-11-15T01:02:54;130.75;;;61.25;;
51560;SDS011;37654;51.262;17.058;2022-11-15T01:05:20;125.32;;;60.97;;
51560;SDS011;37654;51.262;17.058;2022-11-15T01:07:46;118.18;;;57.38;;
51560;SDS011;37654;51.262;17.058;2022-11-15T01:10:11;120.38;;;60.15;;
51560;SDS011;37654;51.262;17.058;2022-11-15T01:12:37;114.40;;;57.92;;
51560;SDS011;37654;51.262;17.058;2022-11-15T01:15:03;124.50;;;58.97;;
51560;SDS011;37654;51.262;17.058;2022-11-15T01:17:30;124.32;;;58.90;;
51560;SDS011;37654;51.262;17.058;2022-11-15T01:19:55;124.28;;;58.88;;
51560;SDS011;37654;51.262;17.058;2022-11-15T01:22:21;125.03;;;60.35;;
51560;SDS011;37654;51.262;17.058;2022-11-15T01:24:49;121.63;;;59.97;;
51560;SDS011;37654;51.262;17.058;2022-11-15T01:27:15;126.45;;;59.50;;
51560;SDS011;37654;51.262;17.058;2022-11-15T01:29:40;125.32;;;59.47;;
51560;SDS011;37654;51.262;17.058;2022-11-15T01:32:05;114.55;;;58.90;;
51560;SDS011;37654;51.262;17.058;2022-11-15T01:34:31;128.65;;;61.65;;
51560;SDS011;37654;51.262;17.058;2022-11-15T01:36:56;123.35;;;57.88;;
51560;SDS011;37654;51.262;17.058;2022-11-15T01:39:22;123.43;;;61.40;;
51560;SDS011;37654;51.262;17.058;2022-11-15T01:41:47;123.57;;;62.33;;
51560;SDS011;37654;51.262;17.058;2022-11-15T01:46:56;120.05;;;61.10;;
51560;SDS011;37654;51.262;17.058;2022-11-15T01:49:23;128.60;;;59.28;;
51560;SDS011;37654;51.262;17.058;2022-11-15T01:51:51;128.68;;;61.40;;
51560;SDS011;37654;51.262;17.058;2022-11-15T01:54:18;130.73;;;61.22;;
51560;SDS011;37654;51.262;17.058;2022-11-15T01:56:48;123.95;;;58.15;;
51560;SDS011;37654;51.262;17.058;2022-11-15T01:59:18;126.18;;;58.92;;
51560;SDS011;37654;51.262;17.058;2022-11-15T02:01:44;126.22;;;62.25;;
51560;SDS011;37654;51.262;17.058;2022-11-15T02:04:11;126.63;;;58.35;;
51560;SDS011;37654;51.262;17.058;2022-11-15T02:06:41;128.85;;;59.67;;
51560;SDS011;37654;51.262;17.058;2022-11-15T02:09:07;138.25;;;63.85;;
51560;SDS011;37654;51.262;17.058;2022-11-15T02:11:33;126.40;;;60.17;;
51560;SDS011;37654;51.262;17.058;2022-11-15T02:13:59;133.27;;;60.63;;
51560;SDS011;37654;51.262;17.058;2022-11-15T02:19:23;123.82;;;60.75;;
51560;SDS011;37654;51.262;17.058;2022-11-15T02:24:51;135.80;;;61.08;;
51560;SDS011;37654;51.262;17.058;2022-11-15T02:40:59;120.25;;;58.22;;
51560;SDS011;37654;51.262;17.058;2022-11-15T02:43:29;121.20;;;58.70;;
51560;SDS011;37654;51.262;17.058;2022-11-15T02:48:45;129.30;;;59.40;;
51560;SDS011;37654;51.262;17.058;2022-11-15T02:51:12;124.20;;;57.50;;
51560;SDS011;37654;51.262;17.058;2022-11-15T02:53:38;119.43;;;59.72;;
51560;SDS011;37654;51.262;17.058;2022-11-15T02:56:03;125.82;;;59.78;;
51560;SDS011;37654;51.262;17.058;2022-11-15T03:01:46;123.20;;;57.58;;
51560;SDS011;37654;51.262;17.058;2022-11-15T03:07:10;127.40;;;62.13;;
51560;SDS011;37654;51.262;17.058;2022-11-15T03:17:23;118.80;;;60.08;;
51560;SDS011;37654;51.262;17.058;2022-11-15T03:20:13;123.68;;;58.08;;
51560;SDS011;37654;51.262;17.058;2022-11-15T03:22:42;127.75;;;58.63;;
51560;SDS011;37654;51.262;17.058;2022-11-15T03:25:10;122.03;;;58.53;;
51560;SDS011;37654;51.262;17.058;2022-11-15T03:27:42;122.63;;;56.67;;
51560;SDS011;37654;51.262;17.058;2022-11-15T03:30:11;114.30;;;58.47;;
51560;SDS011;37654;51.262;17.058;2022-11-15T03:32:46;130.73;;;58.97;;
51560;SDS011;37654;51.262;17.058;2022-11-15T03:35:17;131.48;;;59.78;;
51560;SDS011;37654;51.262;17.058;2022-11-15T03:40:14;123.03;;;59.50;;
51560;SDS011;37654;51.262;17.058;2022-11-15T03:42:48;113.50;;;55.22;;
51560;SDS011;37654;51.262;17.058;2022-11-15T03:45:17;119.88;;;58.42;;
51560;SDS011;37654;51.262;17.058;2022-11-15T03:47:53;119.68;;;58.67;;
51560;SDS011;37654;51.262;17.058;2022-11-15T03:50:40;118.05;;;56.92;;
51560;SDS011;37654;51.262;17.058;2022-11-15T03:53:08;116.00;;;56.75;;
51560;SDS011;37654;51.262;17.058;2022-11-15T03:55:33;113.30;;;55.58;;
51560;SDS011;37654;51.262;17.058;2022-11-15T03:57:59;111.60;;;53.72;;
51560;SDS011;37654;51.262;17.058;2022-11-15T04:00:26;112.78;;;55.67;;
51560;SDS011;37654;51.262;17.058;2022-11-15T04:02:51;117.00;;;56.03;;
51560;SDS011;37654;51.262;17.058;2022-11-15T04:05:17;115.20;;;55.50;;
51560;SDS011;37654;51.262;17.058;2022-11-15T04:07:43;113.40;;;55.72;;
51560;SDS011;37654;51.262;17.058;2022-11-15T04:10:09;113.05;;;56.58;;
51560;SDS011;37654;51.262;17.058;2022-11-15T04:12:36;115.53;;;54.03;;
51560;SDS011;37654;51.262;17.058;2022-11-15T04:17:35;119.18;;;57.88;;
51560;SDS011;37654;51.262;17.058;2022-11-15T04:20:18;120.25;;;55.33;;
51560;SDS011;37654;51.262;17.058;2022-11-15T04:23:00;113.63;;;54.08;;
51560;SDS011;37654;51.262;17.058;2022-11-15T04:25:41;116.57;;;55.10;;
51560;SDS011;37654;51.262;17.058;2022-11-15T04:28:08;110.63;;;56.13;;
51560;SDS011;37654;51.262;17.058;2022-11-15T04:30:33;119.55;;;55.15;;
51560;SDS011;37654;51.262;17.058;2022-11-15T04:32:59;119.28;;;57.00;;
51560;SDS011;37654;51.262;17.058;2022-11-15T04:35:24;124.47;;;58.45;;
51560;SDS011;37654;51.262;17.058;2022-11-15T04:37:50;119.80;;;55.05;;
51560;SDS011;37654;51.262;17.058;2022-11-15T04:40:15;121.18;;;58.90;;
51560;SDS011;37654;51.262;17.058;2022-11-15T04:42:41;110.03;;;54.55;;
51560;SDS011;37654;51.262;17.058;2022-11-15T04:45:09;109.35;;;56.95;;
51560;SDS011;37654;51.262;17.058;2022-11-15T04:47:35;112.80;;;54.58;;
51560;SDS011;37654;51.262;17.058;2022-11-15T04:50:01;115.57;;;55.63;;
51560;SDS011;37654;51.262;17.058;2022-11-15T04:52:26;125.72;;;57.15;;
51560;SDS011;37654;51.262;17.058;2022-11-15T04:54:52;118.78;;;56.15;;
51560;SDS011;37654;51.262;17.058;2022-11-15T04:57:17;111.90;;;53.90;;
51560;SDS011;37654;51.262;17.058;2022-11-15T04:59:43;112.80;;;54.58;;
51560;SDS011;37654;51.262;17.058;2022-11-15T05:02:08;115.28;;;54.30;;
51560;SDS011;37654;51.262;17.058;2022-11-15T05:04:34;118.57;;;54.97;;
51560;SDS011;37654;51.262;17.058;2022-11-15T05:06:59;121.00;;;55.58;;
51560;SDS011;37654;51.262;17.058;2022-11-15T05:09:25;121.72;;;55.00;;
51560;SDS011;37654;51.262;17.058;2022-11-15T05:11:50;112.78;;;55.00;;
51560;SDS011;37654;51.262;17.058;2022-11-15T05:14:16;118.50;;;55.95;;
51560;SDS011;37654;51.262;17.058;2022-11-15T05:16:41;118.95;;;54.20;;
51560;SDS011;37654;51.262;17.058;2022-11-15T05:19:07;126.75;;;58.55;;
51560;SDS011;37654;51.262;17.058;2022-11-15T05:21:33;112.45;;;54.28;;
51560;SDS011;37654;51.262;17.058;2022-11-15T05:23:59;108.50;;;53.70;;
51560;SDS011;37654;51.262;17.058;2022-11-15T05:26:25;119.78;;;53.78;;
51560;SDS011;37654;51.262;17.058;2022-11-15T05:28:54;104.28;;;52.13;;
51560;SDS011;37654;51.262;17.058;2022-11-15T05:31:21;119.40;;;55.63;;
51560;SDS011;37654;51.262;17.058;2022-11-15T05:33:48;111.07;;;51.25;;
51560;SDS011;37654;51.262;17.058;2022-11-15T05:36:21;109.30;;;54.88;;
51560;SDS011;37654;51.262;17.058;2022-11-15T05:41:16;105.43;;;52.97;;
51560;SDS011;37654;51.262;17.058;2022-11-15T05:43:43;97.00;;;50.47;;
51560;SDS011;37654;51.262;17.058;2022-11-15T05:46:09;96.22;;;50.70;;
51560;SDS011;37654;51.262;17.058;2022-11-15T05:48:35;97.40;;;49.60;;
51560;SDS011;37654;51.262;17.058;2022-11-15T05:51:02;106.03;;;50.97;;
51560;SDS011;37654;51.262;17.058;2022-11-15T05:53:29;97.20;;;48.30;;
51560;SDS011;37654;51.262;17.058;2022-11-15T05:55:55;88.78;;;46.97;;
51560;SDS011;37654;51.262;17.058;2022-11-15T05:58:21;90.78;;;45.22;;
51560;SDS011;37654;51.262;17.058;2022-11-15T06:00:46;101.45;;;49.17;;
51560;SDS011;37654;51.262;17.058;2022-11-15T06:03:12;99.32;;;48.97;;
51560;SDS011;37654;51.262;17.058;2022-11-15T06:05:39;94.25;;;47.22;;
51560;SDS011;37654;51.262;17.058;2022-11-15T06:08:05;95.47;;;49.53;;
51560;SDS011;37654;51.262;17.058;2022-11-15T06:10:30;101.43;;;51.33;;
51560;SDS011;37654;51.262;17.058;2022-11-15T06:12:59;93.70;;;46.92;;
51560;SDS011;37654;51.262;17.058;2022-11-15T06:15:25;90.13;;;46.25;;
51560;SDS011;37654;51.262;17.058;2022-11-15T06:17:51;100.05;;;48.08;;
51560;SDS011;37654;51.262;17.058;2022-11-15T06:20:17;93.00;;;46.00;;
51560;SDS011;37654;51.262;17.058;2022-11-15T06:22:43;101.53;;;50.00;;
51560;SDS011;37654;51.262;17.058;2022-11-15T06:25:08;90.30;;;47.50;;
51560;SDS011;37654;51.262;17.058;2022-11-15T06:27:33;87.57;;;46.45;;
51560;SDS011;37654;51.262;17.058;2022-11-15T06:29:59;95.18;;;50.95;;
51560;SDS011;37654;51.262;17.058;2022-11-15T06:32:24;95.95;;;49.00;;
51560;SDS011;37654;51.262;17.058;2022-11-15T06:34:50;101.43;;;48.03;;
51560;SDS011;37654;51.262;17.058;2022-11-15T06:37:15;97.97;;;47.33;;
51560;SDS011;37654;51.262;17.058;2022-11-15T06:39:41;100.68;;;50.67;;
51560;SDS011;37654;51.262;17.058;2022-11-15T06:42:07;105.45;;;50.22;;
51560;SDS011;37654;51.262;17.058;2022-11-15T06:44:33;101.45;;;49.38;;
51560;SDS011;37654;51.262;17.058;2022-11-15T06:46:59;98.43;;;48.08;;
51560;SDS011;37654;51.262;17.058;2022-11-15T06:49:24;95.50;;;48.20;;
51560;SDS011;37654;51.262;17.058;2022-11-15T06:51:49;98.43;;;48.65;;
51560;SDS011;37654;51.262;17.058;2022-11-15T06:54:15;95.03;;;49.97;;
51560;SDS011;37654;51.262;17.058;2022-11-15T06:56:40;92.40;;;44.67;;
51560;SDS011;37654;51.262;17.058;2022-11-15T06:59:05;92.63;;;47.95;;
51560;SDS011;37654;51.262;17.058;2022-11-15T07:01:31;75.93;;;40.33;;
51560;SDS011;37654;51.262;17.058;2022-11-15T07:03:56;80.97;;;42.72;;
51560;SDS011;37654;51.262;17.058;2022-11-15T07:06:22;70.50;;;39.40;;
51560;SDS011;37654;51.262;17.058;2022-11-15T07:08:47;60.95;;;36.53;;
51560;SDS011;37654;51.262;17.058;2022-11-15T07:11:12;62.33;;;35.75;;
51560;SDS011;37654;51.262;17.058;2022-11-15T07:13:38;58.88;;;35.63;;
51560;SDS011;37654;51.262;17.058;2022-11-15T07:16:04;54.40;;;34.28;;
51560;SDS011;37654;51.262;17.058;2022-11-15T07:18:33;52.28;;;33.90;;
51560;SDS011;37654;51.262;17.058;2022-11-15T07:21:00;52.78;;;33.75;;
51560;SDS011;37654;51.262;17.058;2022-11-15T07:23:27;49.53;;;32.80;;
51560;SDS011;37654;51.262;17.058;2022-11-15T07:25:52;52.08;;;33.78;;
51560;SDS011;37654;51.262;17.058;2022-11-15T07:28:18;51.10;;;33.38;;
51560;SDS011;37654;51.262;17.058;2022-11-15T07:30:43;47.45;;;33.83;;
51560;SDS011;37654;51.262;17.058;2022-11-15T07:33:09;48.60;;;32.00;;
51560;SDS011;37654;51.262;17.058;2022-11-15T07:35:34;46.90;;;30.98;;
51560;SDS011;37654;51.262;17.058;2022-11-15T07:38:00;46.88;;;30.63;;
51560;SDS011;37654;51.262;17.058;2022-11-15T07:40:27;50.05;;;29.98;;
51560;SDS011;37654;51.262;17.058;2022-11-15T07:43:04;48.22;;;30.90;;
51560;SDS011;37654;51.262;17.058;2022-11-15T07:45:31;55.63;;;33.17;;
51560;SDS011;37654;51.262;17.058;2022-11-15T07:48:00;47.80;;;30.38;;
51560;SDS011;37654;51.262;17.058;2022-11-15T07:50:26;52.53;;;33.25;;
51560;SDS011;37654;51.262;17.058;2022-11-15T07:52:55;49.75;;;30.75;;
51560;SDS011;37654;51.262;17.058;2022-11-15T07:55:26;50.83;;;31.27;;
51560;SDS011;37654;51.262;17.058;2022-11-15T07:57:53;48.15;;;32.53;;
51560;SDS011;37654;51.262;17.058;2022-11-15T08:00:25;50.45;;;33.28;;
51560;SDS011;37654;51.262;17.058;2022-11-15T08:02:51;48.88;;;31.45;;
51560;SDS011;37654;51.262;17.058;2022-11-15T08:05:16;49.28;;;30.42;;
51560;SDS011;37654;51.262;17.058;2022-11-15T08:07:42;51.45;;;30.27;;
51560;SDS011;37654;51.262;17.058;2022-11-15T08:10:07;57.47;;;33.53;;
51560;SDS011;37654;51.262;17.058;2022-11-15T08:12:33;54.38;;;33.15;;
51560;SDS011;37654;51.262;17.058;2022-11-15T08:14:59;54.92;;;31.92;;
51560;SDS011;37654;51.262;17.058;2022-11-15T08:17:24;46.90;;;28.23;;
51560;SDS011;37654;51.262;17.058;2022-11-15T08:19:50;49.30;;;30.77;;
51560;SDS011;37654;51.262;17.058;2022-11-15T08:22:16;50.72;;;29.85;;
51560;SDS011;37654;51.262;17.058;2022-11-15T08:24:41;52.78;;;33.75;;
51560;SDS011;37654;51.262;17.058;2022-11-15T08:27:07;51.15;;;32.20;;
51560;SDS011;37654;51.262;17.058;2022-11-15T08:29:42;50.35;;;30.73;;
51560;SDS011;37654;51.262;17.058;2022-11-15T08:32:09;48.38;;;31.38;;
51560;SDS011;37654;51.262;17.058;2022-11-15T08:34:34;56.55;;;33.53;;
51560;SDS011;37654;51.262;17.058;2022-11-15T08:37:00;48.97;;;29.65;;
51560;SDS011;37654;51.262;17.058;2022-11-15T08:39:25;51.05;;;31.10;;
51560;SDS011;37654;51.262;17.058;2022-11-15T08:41:51;55.75;;;30.85;;
51560;SDS011;37654;51.262;17.058;2022-11-15T08:44:16;52.85;;;30.08;;
51560;SDS011;37654;51.262;17.058;2022-11-15T08:46:41;53.28;;;30.25;;
51560;SDS011;37654;51.262;17.058;2022-11-15T08:49:07;51.78;;;29.85;;
51560;SDS011;37654;51.262;17.058;2022-11-15T08:51:32;52.53;;;32.28;;
51560;SDS011;37654;51.262;17.058;2022-11-15T08:53:58;48.15;;;28.25;;
51560;SDS011;37654;51.262;17.058;2022-11-15T08:56:23;54.72;;;32.15;;
51560;SDS011;37654;51.262;17.058;2022-11-15T08:58:49;49.08;;;29.33;;
51560;SDS011;37654;51.262;17.058;2022-11-15T09:01:15;50.53;;;30.50;;
51560;SDS011;37654;51.262;17.058;2022-11-15T09:03:42;55.20;;;32.28;;
51560;SDS011;37654;51.262;17.058;2022-11-15T09:06:08;52.47;;;30.73;;
51560;SDS011;37654;51.262;17.058;2022-11-15T09:08:34;55.83;;;31.88;;
51560;SDS011;37654;51.262;17.058;2022-11-15T09:11:02;53.05;;;30.73;;
51560;SDS011;37654;51.262;17.058;2022-11-15T09:13:30;52.17;;;32.05;;
51560;SDS011;37654;51.262;17.058;2022-11-15T09:15:59;49.20;;;30.17;;
51560;SDS011;37654;51.262;17.058;2022-11-15T09:18:27;46.72;;;29.40;;
51560;SDS011;37654;51.262;17.058;2022-11-15T09:20:56;48.05;;;29.20;;
51560;SDS011;37654;51.262;17.058;2022-11-15T09:23:23;44.45;;;29.10;;
51560;SDS011;37654;51.262;17.058;2022-11-15T09:25:48;51.08;;;29.38;;
51560;SDS011;37654;51.262;17.058;2022-11-15T09:28:14;52.42;;;29.58;;
51560;SDS011;37654;51.262;17.058;2022-11-15T09:30:39;55.58;;;30.42;;
51560;SDS011;37654;51.262;17.058;2022-11-15T09:33:08;51.65;;;31.63;;
51560;SDS011;37654;51.262;17.058;2022-11-15T09:35:35;52.70;;;31.85;;
51560;SDS011;37654;51.262;17.058;2022-11-15T09:38:01;49.03;;;28.83;;
51560;SDS011;37654;51.262;17.058;2022-11-15T09:40:27;51.95;;;30.42;;
51560;SDS011;37654;51.262;17.058;2022-11-15T09:45:52;47.85;;;28.83;;
51560;SDS011;37654;51.262;17.058;2022-11-15T09:51:06;39.80;;;25.48;;
51560;SDS011;37654;51.262;17.058;2022-11-15T09:53:48;39.38;;;23.38;;
51560;SDS011;37654;51.262;17.058;2022-11-15T09:56:22;35.08;;;21.85;;
51560;SDS011;37654;51.262;17.058;2022-11-15T10:01:30;34.95;;;21.58;;
51560;SDS011;37654;51.262;17.058;2022-11-15T10:04:04;36.28;;;23.55;;
51560;SDS011;37654;51.262;17.058;2022-11-15T10:06:29;34.22;;;20.75;;
51560;SDS011;37654;51.262;17.058;2022-11-15T10:11:37;38.95;;;22.52;;
51560;SDS011;37654;51.262;17.058;2022-11-15T10:14:24;31.98;;;20.15;;
51560;SDS011;37654;51.262;17.058;2022-11-15T10:22:28;30.83;;;19.33;;
51560;SDS011;37654;51.262;17.058;2022-11-15T10:25:27;29.85;;;19.92;;
51560;SDS011;37654;51.262;17.058;2022-11-15T10:28:15;34.40;;;22.02;;
51560;SDS011;37654;51.262;17.058;2022-11-15T10:30:45;35.88;;;21.38;;
51560;SDS011;37654;51.262;17.058;2022-11-15T10:41:14;26.35;;;19.50;;
51560;SDS011;37654;51.262;17.058;2022-11-15T10:46:32;28.95;;;21.48;;
51560;SDS011;37654;51.262;17.058;2022-11-15T10:51:41;29.48;;;21.05;;
51560;SDS011;37654;51.262;17.058;2022-11-15T10:54:10;29.60;;;21.88;;
51560;SDS011;37654;51.262;17.058;2022-11-15T10:56:37;26.83;;;20.75;;
51560;SDS011;37654;51.262;17.058;2022-11-15T10:59:04;28.83;;;20.02;;
51560;SDS011;37654;51.262;17.058;2022-11-15T11:01:29;26.27;;;20.38;;
51560;SDS011;37654;51.262;17.058;2022-11-15T11:04:03;29.23;;;20.83;;
51560;SDS011;37654;51.262;17.058;2022-11-15T11:11:59;25.83;;;19.77;;
51560;SDS011;37654;51.262;17.058;2022-11-15T11:19:33;27.25;;;19.33;;
51560;SDS011;37654;51.262;17.058;2022-11-15T11:24:42;25.80;;;19.45;;
51560;SDS011;37654;51.262;17.058;2022-11-15T11:30:15;30.15;;;20.88;;
51560;SDS011;37654;51.262;17.058;2022-11-15T11:38:15;29.13;;;19.50;;
51560;SDS011;37654;51.262;17.058;2022-11-15T11:49:10;30.75;;;20.65;;
51560;SDS011;37654;51.262;17.058;2022-11-15T11:51:43;25.55;;;19.50;;
51560;SDS011;37654;51.262;17.058;2022-11-15T11:57:34;26.98;;;20.45;;
51560;SDS011;37654;51.262;17.058;2022-11-15T12:00:12;33.17;;;19.98;;
51560;SDS011;37654;51.262;17.058;2022-11-15T12:02:43;28.88;;;21.13;;
51560;SDS011;37654;51.262;17.058;2022-11-15T12:05:15;26.83;;;19.25;;
51560;SDS011;37654;51.262;17.058;2022-11-15T12:07:52;31.40;;;21.75;;
51560;SDS011;37654;51.262;17.058;2022-11-15T12:10:26;31.83;;;20.90;;
51560;SDS011;37654;51.262;17.058;2022-11-15T12:15:27;27.90;;;20.48;;
51560;SDS011;37654;51.262;17.058;2022-11-15T12:18:00;29.25;;;22.00;;
51560;SDS011;37654;51.262;17.058;2022-11-15T12:20:30;31.15;;;20.98;;
51560;SDS011;37654;51.262;17.058;2022-11-15T12:23:03;36.67;;;23.23;;
51560;SDS011;37654;51.262;17.058;2022-11-15T12:26:04;36.60;;;23.60;;
51560;SDS011;37654;51.262;17.058;2022-11-15T12:28:41;33.60;;;23.05;;
51560;SDS011;37654;51.262;17.058;2022-11-15T12:31:22;36.25;;;23.70;;
51560;SDS011;37654;51.262;17.058;2022-11-15T12:33:57;36.70;;;23.80;;
51560;SDS011;37654;51.262;17.058;2022-11-15T12:41:28;36.30;;;23.02;;
51560;SDS011;37654;51.262;17.058;2022-11-15T12:43:54;35.40;;;23.70;;
51560;SDS011;37654;51.262;17.058;2022-11-15T12:49:02;32.00;;;22.13;;
51560;SDS011;37654;51.262;17.058;2022-11-15T13:02:19;34.90;;;22.92;;
51560;SDS011;37654;51.262;17.058;2022-11-15T13:04:50;34.50;;;24.13;;
51560;SDS011;37654;51.262;17.058;2022-11-15T13:10:00;39.90;;;26.27;;
51560;SDS011;37654;51.262;17.058;2022-11-15T13:27:49;41.30;;;28.50;;
51560;SDS011;37654;51.262;17.058;2022-11-15T13:30:20;46.42;;;30.77;;
51560;SDS011;37654;51.262;17.058;2022-11-15T13:32:48;52.72;;;30.65;;
51560;SDS011;37654;51.262;17.058;2022-11-15T13:35:25;48.08;;;28.85;;
51560;SDS011;37654;51.262;17.058;2022-11-15T13:37:53;49.20;;;28.85;;
51560;SDS011;37654;51.262;17.058;2022-11-15T13:42:55;44.65;;;29.73;;
51560;SDS011;37654;51.262;17.058;2022-11-15T13:45:21;50.15;;;31.30;;
51560;SDS011;37654;51.262;17.058;2022-11-15T13:47:54;50.58;;;31.90;;
51560;SDS011;37654;51.262;17.058;2022-11-15T13:50:22;48.03;;;30.90;;
51560;SDS011;37654;51.262;17.058;2022-11-15T13:52:53;55.40;;;30.85;;
51560;SDS011;37654;51.262;17.058;2022-11-15T13:55:23;49.50;;;29.05;;
51560;SDS011;37654;51.262;17.058;2022-11-15T13:57:53;47.67;;;28.58;;
51560;SDS011;37654;51.262;17.058;2022-11-15T14:00:33;53.20;;;27.88;;
51560;SDS011;37654;51.262;17.058;2022-11-15T14:03:06;64.32;;;29.67;;
51560;SDS011;37654;51.262;17.058;2022-11-15T14:05:39;57.92;;;28.45;;
51560;SDS011;37654;51.262;17.058;2022-11-15T14:08:23;61.55;;;30.92;;
51560;SDS011;37654;51.262;17.058;2022-11-15T14:11:05;55.88;;;29.58;;
51560;SDS011;37654;51.262;17.058;2022-11-15T14:16:37;48.90;;;28.88;;
51560;SDS011;37654;51.262;17.058;2022-11-15T14:19:05;62.97;;;29.40;;
51560;SDS011;37654;51.262;17.058;2022-11-15T14:21:34;53.67;;;28.30;;
51560;SDS011;37654;51.262;17.058;2022-11-15T14:26:44;45.65;;;27.40;;
51560;SDS011;37654;51.262;17.058;2022-11-15T14:31:54;44.42;;;26.88;;
51560;SDS011;37654;51.262;17.058;2022-11-15T14:34:36;47.22;;;25.88;;
51560;SDS011;37654;51.262;17.058;2022-11-15T14:37:02;44.13;;;24.73;;
51560;SDS011;37654;51.262;17.058;2022-11-15T14:39:27;45.20;;;26.60;;
51560;SDS011;37654;51.262;17.058;2022-11-15T14:41:53;45.13;;;25.85;;
51560;SDS011;37654;51.262;17.058;2022-11-15T14:44:18;47.53;;;29.00;;
51560;SDS011;37654;51.262;17.058;2022-11-15T14:46:45;44.42;;;26.75;;
51560;SDS011;37654;51.262;17.058;2022-11-15T14:49:12;49.70;;;29.13;;
51560;SDS011;37654;51.262;17.058;2022-11-15T14:51:39;48.17;;;28.80;;
51560;SDS011;37654;51.262;17.058;2022-11-15T14:54:04;45.97;;;27.30;;
51560;SDS011;37654;51.262;17.058;2022-11-15T14:56:30;43.03;;;28.63;;
51560;SDS011;37654;51.262;17.058;2022-11-15T14:58:55;49.38;;;28.83;;
51560;SDS011;37654;51.262;17.058;2022-11-15T15:01:22;65.40;;;35.75;;
51560;SDS011;37654;51.262;17.058;2022-11-15T15:03:50;69.35;;;39.88;;
51560;SDS011;37654;51.262;17.058;2022-11-15T15:06:21;69.47;;;39.08;;
51560;SDS011;37654;51.262;17.058;2022-11-15T15:08:47;61.88;;;36.53;;
51560;SDS011;37654;51.262;17.058;2022-11-15T15:13:48;60.70;;;31.27;;
51560;SDS011;37654;51.262;17.058;2022-11-15T15:16:13;62.33;;;33.88;;
51560;SDS011;37654;51.262;17.058;2022-11-15T15:18:39;56.63;;;32.05;;
51560;SDS011;37654;51.262;17.058;2022-11-15T15:21:09;64.70;;;36.47;;
51560;SDS011;37654;51.262;17.058;2022-11-15T15:23:43;70.03;;;44.05;;
51560;SDS011;37654;51.262;17.058;2022-11-15T15:26:08;70.95;;;40.40;;
51560;SDS011;37654;51.262;17.058;2022-11-15T15:28:34;64.78;;;39.58;;
51560;SDS011;37654;51.262;17.058;2022-11-15T15:31:00;59.75;;;34.85;;
51560;SDS011;37654;51.262;17.058;2022-11-15T15:33:25;58.35;;;33.78;;
51560;SDS011;37654;51.262;17.058;2022-11-15T15:35:51;54.78;;;31.38;;
51560;SDS011;37654;51.262;17.058;2022-11-15T15:38:17;45.78;;;27.33;;
51560;SDS011;37654;51.262;17.058;2022-11-15T15:40:42;48.83;;;28.17;;
51560;SDS011;37654;51.262;17.058;2022-11-15T15:43:08;47.20;;;27.65;;
51560;SDS011;37654;51.262;17.058;2022-11-15T15:45:34;43.33;;;26.40;;
51560;SDS011;37654;51.262;17.058;2022-11-15T15:48:02;45.28;;;27.20;;
51560;SDS011;37654;51.262;17.058;2022-11-15T15:50:28;48.00;;;27.25;;
51560;SDS011;37654;51.262;17.058;2022-11-15T15:52:58;50.72;;;28.95;;
51560;SDS011;37654;51.262;17.058;2022-11-15T15:55:25;53.97;;;32.38;;
51560;SDS011;37654;51.262;17.058;2022-11-15T15:57:51;55.72;;;31.55;;
51560;SDS011;37654;51.262;17.058;2022-11-15T16:00:17;61.35;;;34.95;;
51560;SDS011;37654;51.262;17.058;2022-11-15T16:02:43;66.90;;;36.17;;
51560;SDS011;37654;51.262;17.058;2022-11-15T16:05:09;64.50;;;38.72;;
51560;SDS011;37654;51.262;17.058;2022-11-15T16:07:35;63.35;;;35.42;;
51560;SDS011;37654;51.262;17.058;2022-11-15T16:10:02;61.25;;;35.08;;
51560;SDS011;37654;51.262;17.058;2022-11-15T16:12:40;55.13;;;35.60;;
51560;SDS011;37654;51.262;17.058;2022-11-15T16:15:07;59.72;;;36.30;;
51560;SDS011;37654;51.262;17.058;2022-11-15T16:17:33;64.03;;;36.08;;
51560;SDS011;37654;51.262;17.058;2022-11-15T16:20:02;58.65;;;35.97;;
51560;SDS011;37654;51.262;17.058;2022-11-15T16:22:28;61.08;;;37.85;;
51560;SDS011;37654;51.262;17.058;2022-11-15T16:24:54;60.95;;;37.05;;
51560;SDS011;37654;51.262;17.058;2022-11-15T16:27:20;66.50;;;39.10;;
51560;SDS011;37654;51.262;17.058;2022-11-15T16:29:46;59.05;;;37.28;;
51560;SDS011;37654;51.262;17.058;2022-11-15T16:32:12;57.55;;;35.38;;
51560;SDS011;37654;51.262;17.058;2022-11-15T16:34:39;58.25;;;34.33;;
51560;SDS011;37654;51.262;17.058;2022-11-15T16:37:05;56.80;;;33.40;;
51560;SDS011;37654;51.262;17.058;2022-11-15T16:39:31;51.85;;;31.25;;
51560;SDS011;37654;51.262;17.058;2022-11-15T16:41:57;54.05;;;32.75;;
51560;SDS011;37654;51.262;17.058;2022-11-15T16:44:23;50.30;;;31.15;;
51560;SDS011;37654;51.262;17.058;2022-11-15T16:46:49;50.33;;;31.00;;
51560;SDS011;37654;51.262;17.058;2022-11-15T16:49:18;51.58;;;31.00;;
51560;SDS011;37654;51.262;17.058;2022-11-15T16:51:45;52.17;;;30.70;;